Time;durP1;ratioP1;P1;durP2;ratioP2;P2;SDS_P1;SDS_P2;PMS_P1;PMS_P2;Temp;Humidity;BMP_temperature;BMP_pressure;BME280_temperature;BME280_humidity;BME280_pressure;Samples;Min_cycle;Max_cycle;Signal;HPM_P1;HPM_P2
2023/12/21 00:01:03;;;;;;;6.67;5.63;;;8.50;99.90;;;;;;4992690;28;21017;-74
2023/12/21 00:03:29;;;;;;;6.60;6.00;;;8.50;99.90;;;;;;4996100;28;20506;-74
2023/12/21 00:05:54;;;;;;;7.77;6.53;;;8.50;99.90;;;;;;4990829;28;20565;-74
2023/12/21 00:08:20;;;;;;;7.60;6.80;;;8.50;99.90;;;;;;4996514;28;20187;-73
2023/12/21 00:10:45;;;;;;;6.93;6.13;;;8.50;99.90;;;;;;4991514;28;20184;-73
2023/12/21 00:13:11;;;;;;;6.00;5.40;;;8.50;99.90;;;;;;4990583;28;20247;-74
2023/12/21 00:15:37;;;;;;;6.37;5.77;;;8.50;99.90;;;;;;4989120;28;20184;-74
2023/12/21 00:18:03;;;;;;;6.20;5.30;;;8.50;99.90;;;;;;4991798;28;20203;-74
2023/12/21 00:20:28;;;;;;;6.53;5.70;;;8.50;99.90;;;;;;4988844;28;20212;-74
2023/12/21 00:22:54;;;;;;;6.50;5.57;;;8.50;99.90;;;;;;4991513;28;20493;-73
2023/12/21 00:25:19;;;;;;;6.47;5.27;;;8.50;99.90;;;;;;4988690;28;20215;-74
2023/12/21 00:27:45;;;;;;;7.67;6.13;;;8.50;99.90;;;;;;4990880;28;20183;-74
2023/12/21 00:30:11;;;;;;;6.27;5.23;;;8.50;99.90;;;;;;4990285;28;20190;-74
2023/12/21 00:32:37;;;;;;;8.30;6.20;;;8.50;99.90;;;;;;4990164;28;20303;-74
2023/12/21 00:35:03;;;;;;;6.93;6.10;;;8.50;99.90;;;;;;4990750;28;20888;-73
2023/12/21 00:37:30;;;;;;;6.40;5.60;;;8.60;99.90;;;;;;4991037;28;20807;-74
2023/12/21 00:39:56;;;;;;;5.97;5.37;;;8.50;99.90;;;;;;4990117;28;20465;-74
2023/12/21 00:42:24;;;;;;;6.10;5.33;;;8.50;99.90;;;;;;4989448;28;20449;-74
2023/12/21 00:44:50;;;;;;;5.87;5.27;;;8.60;99.90;;;;;;4990698;28;20510;-74
2023/12/21 00:47:16;;;;;;;6.03;5.43;;;8.60;99.90;;;;;;4990457;28;20435;-73
2023/12/21 00:49:41;;;;;;;6.37;5.33;;;8.60;99.90;;;;;;4990482;28;20191;-73
2023/12/21 00:52:07;;;;;;;5.83;5.23;;;8.60;99.90;;;;;;4989855;28;20649;-74
2023/12/21 00:54:33;;;;;;;6.40;4.90;;;8.60;99.90;;;;;;4989832;28;20194;-74
2023/12/21 00:56:58;;;;;;;5.20;4.60;;;8.60;99.90;;;;;;4990350;28;20278;-74
2023/12/21 00:59:24;;;;;;;4.80;4.40;;;8.60;99.90;;;;;;4989534;28;20187;-75
2023/12/21 01:01:50;;;;;;;6.00;4.80;;;8.60;99.90;;;;;;4990045;28;20195;-74
2023/12/21 01:04:16;;;;;;;5.13;4.63;;;8.60;99.90;;;;;;4988945;28;20443;-74
2023/12/21 01:06:43;;;;;;;5.93;5.33;;;8.60;99.90;;;;;;4989780;28;20219;-74
2023/12/21 01:09:08;;;;;;;5.07;4.57;;;8.60;99.90;;;;;;4989298;28;20224;-74
2023/12/21 01:11:34;;;;;;;5.13;4.43;;;8.60;99.90;;;;;;4990049;28;20981;-73
2023/12/21 01:14:00;;;;;;;5.53;5.00;;;8.60;99.90;;;;;;4989761;28;20199;-74
2023/12/21 01:16:25;;;;;;;5.17;4.67;;;8.60;99.90;;;;;;4989706;28;20537;-74
2023/12/21 01:18:51;;;;;;;4.80;4.30;;;8.60;99.90;;;;;;4990369;28;20198;-73
2023/12/21 01:21:17;;;;;;;4.57;4.17;;;8.60;99.90;;;;;;4987735;28;20198;-74
2023/12/21 01:23:42;;;;;;;5.90;4.97;;;8.60;99.90;;;;;;4995332;28;20195;-73
2023/12/21 01:26:08;;;;;;;6.30;4.40;;;8.70;99.90;;;;;;4992634;28;20725;-74
2023/12/21 01:28:34;;;;;;;4.50;4.10;;;8.70;99.90;;;;;;4993283;28;20190;-73
2023/12/21 01:30:59;;;;;;;5.80;4.30;;;8.70;99.90;;;;;;4992786;28;20551;-73
2023/12/21 01:33:25;;;;;;;4.63;4.23;;;8.70;99.90;;;;;;4993828;28;20677;-73
2023/12/21 01:35:50;;;;;;;4.67;3.97;;;8.70;99.90;;;;;;4992263;28;20274;-73
2023/12/21 01:38:16;;;;;;;5.33;4.57;;;8.70;99.90;;;;;;4960321;28;20195;-73
2023/12/21 01:40:42;;;;;;;4.37;3.90;;;8.70;99.90;;;;;;4992811;28;20554;-73
2023/12/21 01:43:07;;;;;;;4.43;4.03;;;8.70;99.90;;;;;;4992562;28;20264;-74
2023/12/21 01:45:33;;;;;;;4.40;4.00;;;8.70;99.90;;;;;;4975244;28;20286;-73
2023/12/21 01:47:59;;;;;;;4.80;4.40;;;8.70;99.90;;;;;;4993683;28;20179;-74
2023/12/21 01:50:26;;;;;;;5.97;4.33;;;8.70;99.90;;;;;;4994903;28;20186;-74
2023/12/21 01:52:55;;;;;;;5.20;4.37;;;8.70;99.90;;;;;;4993447;28;20431;-73
2023/12/21 01:55:21;;;;;;;4.27;3.70;;;8.80;99.90;;;;;;4992422;28;20427;-73
2023/12/21 01:57:47;;;;;;;4.70;4.30;;;8.70;99.90;;;;;;4993786;28;20426;-74
2023/12/21 02:00:14;;;;;;;4.87;4.33;;;8.80;99.90;;;;;;4992473;28;20434;-74
2023/12/21 02:02:40;;;;;;;4.40;4.00;;;8.80;99.90;;;;;;4995311;28;20207;-74
2023/12/21 02:05:06;;;;;;;4.13;3.67;;;8.70;99.90;;;;;;4992686;28;20605;-74
2023/12/21 02:07:32;;;;;;;5.00;4.23;;;8.80;99.90;;;;;;4994593;28;20199;-74
2023/12/21 02:09:57;;;;;;;5.97;4.90;;;8.80;99.90;;;;;;4993986;28;20432;-74
2023/12/21 02:12:23;;;;;;;6.60;5.10;;;8.80;99.90;;;;;;4994126;28;20586;-74
2023/12/21 02:14:49;;;;;;;4.87;4.37;;;8.70;99.90;;;;;;4992857;28;20195;-74
2023/12/21 02:17:18;;;;;;;4.97;4.57;;;8.80;99.90;;;;;;4992726;28;20183;-74
2023/12/21 02:19:44;;;;;;;4.47;4.07;;;8.80;99.90;;;;;;4994817;28;20190;-74
2023/12/21 02:22:13;;;;;;;5.90;4.83;;;8.80;99.90;;;;;;4992852;28;20435;-73
2023/12/21 02:24:39;;;;;;;6.10;5.20;;;8.80;99.90;;;;;;4994650;28;20435;-74
2023/12/21 02:27:05;;;;;;;6.80;4.80;;;8.80;99.90;;;;;;4992562;28;20433;-74
2023/12/21 02:29:31;;;;;;;5.23;4.80;;;8.80;99.90;;;;;;4995121;28;20419;-74
2023/12/21 02:31:56;;;;;;;5.47;4.87;;;8.90;99.90;;;;;;4993799;28;20206;-74
2023/12/21 02:34:22;;;;;;;6.23;5.20;;;8.90;99.90;;;;;;4993754;28;20538;-73
2023/12/21 02:36:48;;;;;;;6.33;5.53;;;8.80;99.90;;;;;;4994520;28;20630;-73
2023/12/21 02:39:13;;;;;;;5.70;5.10;;;8.80;99.90;;;;;;4992399;28;20569;-73
2023/12/21 02:41:39;;;;;;;6.13;5.53;;;8.80;99.90;;;;;;4995977;28;20306;-74
2023/12/21 02:44:05;;;;;;;5.70;5.10;;;8.80;99.90;;;;;;4990579;28;20191;-74
2023/12/21 02:46:31;;;;;;;7.73;5.63;;;8.80;99.90;;;;;;4995125;28;20212;-74
2023/12/21 02:48:58;;;;;;;7.33;5.87;;;8.80;99.90;;;;;;4995610;28;20278;-73
2023/12/21 02:51:23;;;;;;;6.67;5.73;;;8.80;99.90;;;;;;4995875;28;20419;-74
2023/12/21 02:53:49;;;;;;;7.13;5.30;;;8.80;99.90;;;;;;4995780;28;20427;-73
2023/12/21 02:56:15;;;;;;;6.70;5.40;;;8.80;99.90;;;;;;4996073;28;20699;-73
2023/12/21 02:58:41;;;;;;;6.17;5.57;;;8.80;99.90;;;;;;4999496;28;20438;-73
2023/12/21 03:01:07;;;;;;;6.23;5.40;;;8.80;99.90;;;;;;4995168;28;20437;-73
2023/12/21 03:03:32;;;;;;;5.40;4.70;;;8.80;99.90;;;;;;4999075;28;20180;-74
2023/12/21 03:05:58;;;;;;;5.33;4.83;;;8.80;99.90;;;;;;4997414;28;20684;-74
2023/12/21 03:08:23;;;;;;;6.20;4.80;;;8.90;99.90;;;;;;4995298;28;20187;-74
2023/12/21 03:10:49;;;;;;;5.27;4.33;;;8.90;99.90;;;;;;4998009;28;20180;-73
2023/12/21 03:13:15;;;;;;;5.03;4.63;;;8.90;99.90;;;;;;4996305;28;20217;-74
2023/12/21 03:15:41;;;;;;;6.40;4.77;;;8.80;99.90;;;;;;4998880;28;20184;-74
2023/12/21 03:18:06;;;;;;;4.77;4.27;;;8.90;99.90;;;;;;4996525;28;20430;-73
2023/12/21 03:20:32;;;;;;;4.40;4.00;;;8.90;99.90;;;;;;4997989;28;20190;-74
2023/12/21 03:22:58;;;;;;;4.17;3.87;;;8.90;99.90;;;;;;4996424;28;20248;-74
2023/12/21 03:25:23;;;;;;;3.67;3.30;;;8.90;99.90;;;;;;4998253;28;21150;-74
2023/12/21 03:27:49;;;;;;;3.50;3.20;;;8.90;99.90;;;;;;4994967;28;20187;-74
2023/12/21 03:30:15;;;;;;;4.00;3.30;;;8.90;99.90;;;;;;4995129;28;20194;-73
2023/12/21 03:32:42;;;;;;;5.10;3.50;;;8.90;99.90;;;;;;4999295;28;20542;-73
2023/12/21 03:35:08;;;;;;;3.77;3.33;;;8.90;99.90;;;;;;4996645;28;20438;-74
2023/12/21 03:37:34;;;;;;;3.30;3.00;;;8.90;99.90;;;;;;4996511;28;20434;-73
2023/12/21 03:40:00;;;;;;;3.10;2.70;;;8.90;99.90;;;;;;4997226;28;20488;-73
2023/12/21 03:42:25;;;;;;;2.90;2.70;;;8.90;99.90;;;;;;4999265;28;20266;-74
2023/12/21 03:44:51;;;;;;;2.90;2.60;;;8.90;99.90;;;;;;4997686;28;20196;-74
2023/12/21 03:47:17;;;;;;;2.77;2.53;;;8.90;99.90;;;;;;4996651;28;20187;-73
2023/12/21 03:49:42;;;;;;;2.93;2.73;;;8.90;99.90;;;;;;5001580;28;20191;-73
2023/12/21 03:52:08;;;;;;;3.10;2.80;;;8.90;99.90;;;;;;4996967;28;20546;-73
2023/12/21 03:54:34;;;;;;;3.93;2.90;;;8.90;99.90;;;;;;4996327;28;20183;-73
2023/12/21 03:57:00;;;;;;;3.10;2.80;;;8.90;99.90;;;;;;4995751;28;20650;-74
2023/12/21 03:59:25;;;;;;;2.60;2.40;;;8.90;99.90;;;;;;4999672;28;20306;-74
2023/12/21 04:01:52;;;;;;;3.10;2.80;;;8.90;99.90;;;;;;4994396;28;20195;-73
2023/12/21 04:04:18;;;;;;;3.00;2.70;;;8.90;99.90;;;;;;4996807;28;20766;-73
2023/12/21 04:06:44;;;;;;;4.90;2.80;;;8.90;99.90;;;;;;4999273;28;20506;-73
2023/12/21 04:09:10;;;;;;;3.77;2.83;;;8.90;99.90;;;;;;4996054;28;20489;-74
2023/12/21 04:11:35;;;;;;;2.73;2.53;;;8.90;99.90;;;;;;4997523;28;20188;-74
2023/12/21 04:14:01;;;;;;;3.73;2.90;;;8.90;99.90;;;;;;4995477;28;20282;-73
2023/12/21 04:16:27;;;;;;;4.83;2.77;;;8.90;99.90;;;;;;4999336;28;20234;-73
2023/12/21 04:18:52;;;;;;;3.60;2.40;;;8.90;99.90;;;;;;4997685;28;20336;-74
2023/12/21 04:21:18;;;;;;;2.80;2.40;;;8.90;99.90;;;;;;4981118;28;20191;-73
2023/12/21 04:23:45;;;;;;;2.50;2.30;;;8.90;99.90;;;;;;4997855;28;20616;-74
2023/12/21 04:26:21;;;;;;;3.10;2.77;;;8.90;99.90;;;;;;4994482;28;20216;-73
2023/12/21 04:28:50;;;;;;;3.30;2.57;;;8.90;99.90;;;;;;5011949;28;20426;-73
2023/12/21 04:31:20;;;;;;;2.40;2.20;;;8.90;99.90;;;;;;4996255;28;20450;-74
2023/12/21 04:33:47;;;;;;;3.80;2.93;;;8.90;99.90;;;;;;4997137;28;20474;-73
2023/12/21 04:36:14;;;;;;;3.17;2.87;;;9.00;99.90;;;;;;4996490;28;20427;-74
2023/12/21 04:38:39;;;;;;;2.83;2.53;;;9.00;99.90;;;;;;5000478;28;20936;-74
2023/12/21 04:41:05;;;;;;;2.37;2.17;;;9.00;99.90;;;;;;4996205;28;20446;-74
2023/12/21 04:43:31;;;;;;;2.57;2.23;;;9.00;99.90;;;;;;4997626;28;20283;-74
2023/12/21 04:45:57;;;;;;;4.43;2.50;;;9.00;99.90;;;;;;4996896;28;20213;-74
2023/12/21 04:48:23;;;;;;;2.47;2.27;;;8.90;99.90;;;;;;5000473;28;20426;-74
2023/12/21 04:50:48;;;;;;;3.00;2.33;;;8.90;99.90;;;;;;4999458;28;20191;-74
2023/12/21 04:53:14;;;;;;;3.60;2.30;;;9.00;99.90;;;;;;4996998;28;20274;-73
2023/12/21 04:55:40;;;;;;;3.50;2.60;;;8.90;99.90;;;;;;5000503;28;20186;-74
2023/12/21 04:58:05;;;;;;;2.30;2.10;;;8.90;99.90;;;;;;4994866;28;20183;-74
2023/12/21 05:00:31;;;;;;;2.70;2.43;;;9.00;99.90;;;;;;4998835;28;20188;-73
2023/12/21 05:02:57;;;;;;;1.90;1.70;;;8.90;99.90;;;;;;4997118;28;20191;-74
2023/12/21 05:05:22;;;;;;;3.33;2.07;;;8.90;99.90;;;;;;4997815;28;20281;-74
2023/12/21 05:07:48;;;;;;;2.13;1.93;;;8.90;99.90;;;;;;4999172;28;20669;-74
2023/12/21 05:10:14;;;;;;;4.77;1.97;;;8.90;99.90;;;;;;4994391;28;20297;-74
2023/12/21 05:12:40;;;;;;;3.60;1.60;;;8.90;99.90;;;;;;5000480;28;20199;-73
2023/12/21 05:15:06;;;;;;;1.80;1.50;;;8.90;99.90;;;;;;4993303;28;20230;-74
2023/12/21 05:17:31;;;;;;;1.53;1.20;;;8.90;99.90;;;;;;5000454;28;20188;-73
2023/12/21 05:19:57;;;;;;;2.20;1.87;;;8.90;99.90;;;;;;4996447;28;20441;-74
2023/12/21 05:22:23;;;;;;;1.67;1.13;;;9.00;99.90;;;;;;4998293;28;20531;-74
2023/12/21 05:24:49;;;;;;;1.33;1.23;;;9.00;99.90;;;;;;4996151;28;20187;-73
2023/12/21 05:27:14;;;;;;;2.20;1.20;;;9.00;99.90;;;;;;4997743;28;20634;-74
2023/12/21 05:29:41;;;;;;;1.10;1.00;;;9.00;99.90;;;;;;4997621;28;20239;-74
2023/12/21 05:32:07;;;;;;;2.10;1.60;;;9.00;99.90;;;;;;4996945;28;20276;-73
2023/12/21 05:34:33;;;;;;;1.70;1.37;;;9.00;99.90;;;;;;5000302;28;20469;-73
2023/12/21 05:37:01;;;;;;;3.63;1.47;;;9.00;99.90;;;;;;4998031;28;20183;-74
2023/12/21 05:39:27;;;;;;;1.30;1.20;;;9.00;99.90;;;;;;4997299;28;20435;-74
2023/12/21 05:41:53;;;;;;;1.40;1.30;;;9.00;99.90;;;;;;4997341;28;20438;-74
2023/12/21 05:44:19;;;;;;;1.53;1.40;;;9.00;99.90;;;;;;4998092;28;20271;-73
2023/12/21 05:46:45;;;;;;;1.77;1.57;;;9.00;99.90;;;;;;5000485;28;20462;-74
2023/12/21 05:49:11;;;;;;;1.73;1.60;;;9.00;99.90;;;;;;4997697;28;20281;-73
2023/12/21 05:51:37;;;;;;;1.87;1.57;;;9.00;99.90;;;;;;4997456;28;20431;-74
2023/12/21 05:54:03;;;;;;;1.30;1.20;;;9.00;99.90;;;;;;4997964;28;20446;-73
2023/12/21 05:56:29;;;;;;;2.80;1.53;;;9.00;99.90;;;;;;4999971;28;20286;-74
2023/12/21 05:58:55;;;;;;;2.23;2.03;;;9.00;99.90;;;;;;4990192;28;20717;-73
2023/12/21 06:01:21;;;;;;;3.80;1.47;;;9.00;99.90;;;;;;4988866;28;20446;-74
2023/12/21 06:03:47;;;;;;;2.73;1.90;;;9.00;99.90;;;;;;4989428;28;20541;-73
2023/12/21 06:06:13;;;;;;;2.17;1.97;;;9.00;99.90;;;;;;4989446;28;20856;-73
2023/12/21 06:08:39;;;;;;;3.10;2.40;;;9.00;99.90;;;;;;4988372;28;20196;-74
2023/12/21 06:11:06;;;;;;;2.60;2.30;;;9.00;99.90;;;;;;4993274;28;20420;-74
2023/12/21 06:13:33;;;;;;;3.60;2.53;;;9.00;99.90;;;;;;4998604;28;20445;-74
2023/12/21 06:15:59;;;;;;;4.30;2.17;;;9.00;99.90;;;;;;4997071;28;20929;-73
2023/12/21 06:18:25;;;;;;;2.90;2.60;;;9.00;99.90;;;;;;5000314;28;20457;-75
2023/12/21 06:20:50;;;;;;;2.70;2.30;;;9.10;99.90;;;;;;4999183;28;20447;-74
2023/12/21 06:23:17;;;;;;;2.47;2.20;;;9.00;99.90;;;;;;4978205;28;20191;-73
2023/12/21 06:25:42;;;;;;;5.60;2.03;;;9.00;99.90;;;;;;4999901;28;20216;-74
2023/12/21 06:28:08;;;;;;;4.03;2.67;;;9.10;99.90;;;;;;4997061;28;20430;-73
2023/12/21 06:30:34;;;;;;;3.77;2.93;;;9.10;99.90;;;;;;4997189;28;20660;-73
2023/12/21 06:33:00;;;;;;;4.57;2.80;;;9.10;99.90;;;;;;4993116;28;20198;-74
2023/12/21 06:35:26;;;;;;;2.30;2.10;;;9.10;99.90;;;;;;4998707;28;20491;-74
2023/12/21 06:37:51;;;;;;;3.47;2.10;;;9.10;99.90;;;;;;4993390;28;20187;-73
2023/12/21 06:40:17;;;;;;;3.30;2.97;;;9.10;99.90;;;;;;4990878;28;20237;-74
2023/12/21 06:42:42;;;;;;;3.33;2.60;;;9.10;99.90;;;;;;4990696;28;20179;-73
2023/12/21 06:45:09;;;;;;;3.73;3.40;;;9.10;99.90;;;;;;4989188;28;20700;-73
2023/12/21 06:47:34;;;;;;;3.13;2.73;;;9.10;99.90;;;;;;4989996;28;20282;-75
2023/12/21 06:50:00;;;;;;;4.83;3.17;;;9.10;99.90;;;;;;4993318;28;20427;-73
2023/12/21 06:52:26;;;;;;;5.37;3.03;;;9.10;99.90;;;;;;4990868;28;20192;-73
2023/12/21 06:54:51;;;;;;;3.50;2.80;;;9.10;99.90;;;;;;4988241;28;20213;-74
2023/12/21 06:57:17;;;;;;;3.60;3.30;;;9.10;99.90;;;;;;4991100;28;20344;-74
2023/12/21 06:59:43;;;;;;;4.60;3.30;;;9.10;99.90;;;;;;4991375;28;20216;-74
2023/12/21 07:02:08;;;;;;;4.13;3.00;;;9.10;99.90;;;;;;4989643;28;20188;-74
2023/12/21 07:04:34;;;;;;;5.30;3.80;;;9.10;99.90;;;;;;4990533;28;20215;-73
2023/12/21 07:07:00;;;;;;;4.77;3.57;;;9.10;99.90;;;;;;4990057;28;20215;-74
2023/12/21 07:09:26;;;;;;;4.97;3.13;;;9.10;99.90;;;;;;4991401;28;20795;-74
2023/12/21 07:11:51;;;;;;;5.40;3.80;;;9.20;99.90;;;;;;4989337;28;20615;-74
2023/12/21 07:14:17;;;;;;;7.70;4.17;;;9.20;99.90;;;;;;4992295;28;20200;-73
2023/12/21 07:16:43;;;;;;;5.70;4.23;;;9.20;99.90;;;;;;4992110;28;20215;-74
2023/12/21 07:19:08;;;;;;;6.40;4.93;;;9.20;99.90;;;;;;4992742;28;20206;-74
2023/12/21 07:21:34;;;;;;;8.27;4.97;;;9.10;99.90;;;;;;4990882;28;20661;-75
2023/12/21 07:24:00;;;;;;;6.90;4.90;;;9.10;99.90;;;;;;4988931;28;20606;-74
2023/12/21 07:26:26;;;;;;;11.73;5.47;;;9.20;99.90;;;;;;4991260;28;20222;-74
2023/12/21 07:28:52;;;;;;;6.60;3.70;;;9.20;99.90;;;;;;4990478;28;20175;-74
2023/12/21 07:31:18;;;;;;;7.93;5.07;;;9.20;99.90;;;;;;4986929;28;20459;-73
2023/12/21 07:33:44;;;;;;;5.43;4.60;;;9.20;99.90;;;;;;4988257;28;20233;-73
2023/12/21 07:36:10;;;;;;;6.43;4.20;;;9.20;99.90;;;;;;4984713;28;20934;-72
2023/12/21 07:38:37;;;;;;;11.17;4.57;;;9.20;99.90;;;;;;4991653;28;21045;-72
2023/12/21 07:41:03;;;;;;;4.70;3.90;;;9.10;99.90;;;;;;4991253;28;20431;-73
2023/12/21 07:43:29;;;;;;;5.67;3.27;;;9.10;99.90;;;;;;4993890;28;20939;-74
2023/12/21 07:45:56;;;;;;;5.30;3.40;;;9.20;99.90;;;;;;4992158;28;20498;-71
2023/12/21 07:48:21;;;;;;;4.63;3.20;;;9.20;99.90;;;;;;4992218;28;21307;-73
2023/12/21 07:50:47;;;;;;;6.33;4.00;;;9.10;99.90;;;;;;4991344;28;20427;-74
2023/12/21 07:53:13;;;;;;;5.63;2.93;;;9.20;99.90;;;;;;4993589;28;20225;-72
2023/12/21 07:55:38;;;;;;;6.03;3.47;;;9.20;99.90;;;;;;4991889;28;20645;-73
2023/12/21 07:58:05;;;;;;;5.03;2.73;;;9.20;99.90;;;;;;4993183;28;20274;-71
2023/12/21 08:00:31;;;;;;;5.23;2.90;;;9.20;99.90;;;;;;4994259;28;20188;-72
2023/12/21 08:02:57;;;;;;;5.00;2.63;;;9.20;99.90;;;;;;4993971;28;20431;-73
2023/12/21 08:05:23;;;;;;;3.77;2.37;;;9.20;99.90;;;;;;4994374;28;20481;-71
2023/12/21 08:07:52;;;;;;;3.90;3.00;;;9.20;99.90;;;;;;4994206;28;20458;-72
2023/12/21 08:10:18;;;;;;;3.63;2.47;;;9.20;99.90;;;;;;4995171;28;20469;-70
2023/12/21 08:12:44;;;;;;;7.10;4.03;;;9.20;99.90;;;;;;4994216;28;20465;-75
2023/12/21 08:15:10;;;;;;;4.00;2.83;;;9.20;99.90;;;;;;4994163;28;20245;-73
2023/12/21 08:17:36;;;;;;;4.57;3.13;;;9.20;99.90;;;;;;4995253;28;20453;-73
2023/12/21 08:20:06;;;;;;;4.57;3.50;;;9.20;99.90;;;;;;4992852;28;20422;-73
2023/12/21 08:22:33;;;;;;;4.83;3.27;;;9.20;99.90;;;;;;4995929;28;20436;-73
2023/12/21 08:24:59;;;;;;;4.93;3.20;;;9.20;99.90;;;;;;4977390;28;20430;-73
2023/12/21 08:27:25;;;;;;;5.43;3.30;;;9.30;99.90;;;;;;4995535;28;20437;-72
2023/12/21 08:29:51;;;;;;;5.90;3.37;;;9.30;99.90;;;;;;4994190;28;20220;-73
2023/12/21 08:32:18;;;;;;;4.90;3.60;;;9.20;99.90;;;;;;4993408;28;20531;-73
2023/12/21 08:34:44;;;;;;;7.40;3.43;;;9.30;99.90;;;;;;4994024;28;20438;-73
2023/12/21 08:37:10;;;;;;;6.30;4.07;;;9.30;99.90;;;;;;4993195;28;20939;-70
2023/12/21 08:39:36;;;;;;;4.80;3.20;;;9.30;99.90;;;;;;4994236;28;20430;-74
2023/12/21 08:42:02;;;;;;;3.97;3.30;;;9.30;99.90;;;;;;4989286;28;20760;-71
2023/12/21 08:44:28;;;;;;;3.50;2.60;;;9.30;99.90;;;;;;4989877;28;20996;-74
2023/12/21 08:46:54;;;;;;;3.23;2.80;;;9.30;99.90;;;;;;4990119;28;20467;-73
2023/12/21 08:49:20;;;;;;;2.63;2.17;;;9.30;99.90;;;;;;4991677;28;20938;-74
2023/12/21 08:51:45;;;;;;;3.67;3.00;;;9.30;99.90;;;;;;4990349;28;20184;-72
2023/12/21 08:54:11;;;;;;;4.13;2.40;;;9.30;99.90;;;;;;4992352;28;20256;-74
2023/12/21 08:56:46;;;;;;;3.27;2.20;;;9.30;99.90;;;;;;4990156;28;20188;-73
2023/12/21 08:59:12;;;;;;;4.43;2.50;;;9.30;99.90;;;;;;4991632;28;20190;-73
2023/12/21 09:01:38;;;;;;;4.40;2.70;;;9.30;99.90;;;;;;4988512;28;20911;-72
2023/12/21 09:04:04;;;;;;;5.30;2.80;;;9.40;99.90;;;;;;4990840;28;20434;-70
2023/12/21 09:06:31;;;;;;;3.50;2.30;;;9.30;99.90;;;;;;4989663;28;20630;-72
2023/12/21 09:08:58;;;;;;;2.40;1.97;;;9.30;99.90;;;;;;4989683;28;20430;-74
2023/12/21 09:11:24;;;;;;;2.97;1.80;;;9.30;99.90;;;;;;4989967;28;20461;-72
2023/12/21 09:13:50;;;;;;;4.77;2.17;;;9.30;99.90;;;;;;4991383;28;20442;-73
2023/12/21 09:16:17;;;;;;;3.00;2.00;;;9.30;99.90;;;;;;4990978;28;20443;-72
2023/12/21 09:18:46;;;;;;;4.93;1.73;;;9.30;99.90;;;;;;4990642;28;20191;-73
2023/12/21 09:21:12;;;;;;;2.30;2.10;;;9.30;99.90;;;;;;4990252;28;20789;-73
2023/12/21 09:23:39;;;;;;;2.00;1.30;;;9.40;99.90;;;;;;4990020;28;21024;-74
2023/12/21 09:26:08;;;;;;;4.60;1.63;;;9.40;99.90;;;;;;4988867;28;20895;-71
2023/12/21 09:28:35;;;;;;;1.93;1.60;;;9.40;99.90;;;;;;4989527;28;20495;-72
2023/12/21 09:31:01;;;;;;;5.93;1.87;;;9.40;99.90;;;;;;4989836;28;20434;-72
2023/12/21 09:33:31;;;;;;;2.33;1.53;;;9.40;99.90;;;;;;4990591;28;20796;-73
2023/12/21 09:35:58;;;;;;;1.67;1.40;;;9.40;99.90;;;;;;4990081;28;20439;-73
2023/12/21 09:38:24;;;;;;;3.07;1.40;;;9.40;99.90;;;;;;4990495;28;20839;-74
2023/12/21 09:40:50;;;;;;;2.20;1.27;;;9.40;99.90;;;;;;4988935;28;20488;-70
2023/12/21 09:43:21;;;;;;;1.47;1.37;;;9.40;99.90;;;;;;4990776;28;20971;-73
2023/12/21 09:45:51;;;;;;;3.90;1.70;;;9.40;99.90;;;;;;4990564;28;20470;-75
2023/12/21 09:48:18;;;;;;;3.07;1.23;;;9.40;99.90;;;;;;4990319;28;20439;-71
2023/12/21 09:50:45;;;;;;;1.63;1.30;;;9.40;99.90;;;;;;4989464;28;20442;-71
2023/12/21 09:53:13;;;;;;;3.70;1.43;;;9.40;99.90;;;;;;4990243;28;20659;-71
2023/12/21 09:55:43;;;;;;;2.13;1.00;;;9.40;99.90;;;;;;4988595;28;20427;-73
2023/12/21 09:58:12;;;;;;;0.83;0.80;;;9.50;99.90;;;;;;4990296;28;20462;-73
2023/12/21 10:00:41;;;;;;;1.67;1.13;;;9.50;99.90;;;;;;4988629;28;20528;-73
2023/12/21 10:03:07;;;;;;;1.30;0.77;;;9.50;99.90;;;;;;4990332;28;20435;-73
2023/12/21 10:05:34;;;;;;;1.50;1.30;;;9.50;99.90;;;;;;4989006;28;20482;-74
2023/12/21 10:07:59;;;;;;;2.87;1.03;;;9.50;99.90;;;;;;4988889;28;20442;-74
2023/12/21 10:10:26;;;;;;;1.47;1.13;;;9.50;99.90;;;;;;4989280;28;20430;-75
2023/12/21 10:12:52;;;;;;;1.20;1.10;;;9.50;99.90;;;;;;5003990;28;20898;-73
2023/12/21 10:15:18;;;;;;;1.90;1.43;;;9.50;99.90;;;;;;4990712;28;20438;-73
2023/12/21 10:17:44;;;;;;;1.63;1.00;;;9.50;99.90;;;;;;4987234;28;20470;-74
2023/12/21 10:20:11;;;;;;;1.83;1.07;;;9.50;99.90;;;;;;4991554;28;21223;-74
2023/12/21 10:22:42;;;;;;;1.10;1.00;;;9.50;99.90;;;;;;4989092;28;20434;-73
2023/12/21 10:25:09;;;;;;;1.53;1.30;;;9.60;99.90;;;;;;5004579;28;20526;-75
2023/12/21 10:27:36;;;;;;;2.67;2.07;;;9.60;99.90;;;;;;4988394;28;20454;-75
2023/12/21 10:30:03;;;;;;;0.93;0.93;;;9.60;99.90;;;;;;4990537;28;20534;-74
2023/12/21 10:32:29;;;;;;;1.30;1.20;;;9.60;99.90;;;;;;4986595;28;20451;-73
2023/12/21 10:34:58;;;;;;;1.67;1.23;;;9.60;99.90;;;;;;4998932;28;20545;-71
2023/12/21 10:37:24;;;;;;;1.93;1.10;;;9.60;99.90;;;;;;4985961;28;20431;-75
2023/12/21 10:39:50;;;;;;;1.10;0.97;;;9.60;99.90;;;;;;4970732;28;20423;-76
2023/12/21 10:42:16;;;;;;;1.40;1.30;;;9.60;99.90;;;;;;4988579;28;20508;-75
2023/12/21 10:44:47;;;;;;;1.30;1.20;;;9.60;99.90;;;;;;4988712;28;20442;-73
2023/12/21 10:47:15;;;;;;;1.40;1.10;;;9.60;99.90;;;;;;4987554;28;20486;-74
2023/12/21 10:49:43;;;;;;;1.00;0.90;;;9.70;99.90;;;;;;4987921;28;20427;-72
2023/12/21 10:52:12;;;;;;;1.53;1.00;;;9.70;99.90;;;;;;4987573;28;20999;-74
2023/12/21 10:54:42;;;;;;;1.43;1.20;;;9.60;99.90;;;;;;4986743;28;20426;-74
2023/12/21 10:57:09;;;;;;;1.30;1.20;;;9.70;99.90;;;;;;4986882;28;21022;-73
2023/12/21 10:59:35;;;;;;;1.10;0.90;;;9.70;99.90;;;;;;4986633;28;20433;-75
2023/12/21 11:02:02;;;;;;;3.13;1.67;;;9.70;99.90;;;;;;4990083;28;20537;-73
2023/12/21 11:04:29;;;;;;;1.20;1.10;;;9.70;99.90;;;;;;4988763;28;20429;-72
2023/12/21 11:06:55;;;;;;;1.70;1.60;;;9.70;99.90;;;;;;5002900;28;20542;-73
2023/12/21 11:09:22;;;;;;;1.97;1.80;;;9.70;99.90;;;;;;4986972;28;21023;-73
2023/12/21 11:11:48;;;;;;;1.87;1.77;;;9.80;99.90;;;;;;4989070;28;20439;-71
2023/12/21 11:14:15;;;;;;;2.43;1.80;;;9.80;99.90;;;;;;4992718;28;20529;-72
2023/12/21 11:16:45;;;;;;;2.60;2.40;;;9.70;99.90;;;;;;4985426;28;20438;-71
2023/12/21 11:19:14;;;;;;;2.53;2.30;;;9.80;99.90;;;;;;4991412;28;20491;-72
2023/12/21 11:21:40;;;;;;;2.20;2.00;;;9.80;99.90;;;;;;4988664;28;20427;-73
2023/12/21 11:24:06;;;;;;;2.40;2.20;;;9.80;99.90;;;;;;4990913;28;20446;-75
2023/12/21 11:26:32;;;;;;;3.00;2.37;;;9.80;99.90;;;;;;4991078;28;20486;-73
2023/12/21 11:29:10;;;;;;;3.33;2.97;;;9.90;99.90;;;;;;4992398;28;20447;-70
2023/12/21 11:31:40;;;;;;;2.67;2.47;;;9.90;99.90;;;;;;4990467;28;20240;-71
2023/12/21 11:34:10;;;;;;;2.70;2.50;;;9.90;99.90;;;;;;4989194;28;20453;-71
2023/12/21 11:36:36;;;;;;;3.20;2.77;;;9.90;99.90;;;;;;4985720;28;20473;-73
2023/12/21 11:39:07;;;;;;;3.30;3.00;;;9.90;99.90;;;;;;4991157;28;20438;-74
2023/12/21 11:41:33;;;;;;;4.50;3.37;;;9.90;99.90;;;;;;4992447;28;20203;-73
2023/12/21 11:44:04;;;;;;;4.87;3.77;;;9.90;99.90;;;;;;4987194;28;20442;-72
2023/12/21 11:46:35;;;;;;;4.63;3.67;;;9.90;99.90;;;;;;4988391;28;20222;-71
2023/12/21 11:49:01;;;;;;;5.17;4.67;;;9.90;99.90;;;;;;4988888;28;20810;-73
2023/12/21 11:51:27;;;;;;;4.50;4.10;;;10.00;99.90;;;;;;4986494;28;20490;-74
2023/12/21 11:53:53;;;;;;;6.13;4.80;;;10.00;99.90;;;;;;4976892;28;20426;-72
2023/12/21 11:56:19;;;;;;;6.47;5.23;;;10.00;99.90;;;;;;4990233;28;20817;-70
2023/12/21 11:58:47;;;;;;;5.47;4.97;;;10.00;99.90;;;;;;4990385;28;20198;-74
2023/12/21 12:01:28;;;;;;;4.93;4.43;;;10.00;99.90;;;;;;4991866;28;20442;-74
2023/12/21 12:03:55;;;;;;;4.27;3.70;;;10.00;99.90;;;;;;4991551;28;20442;-72
2023/12/21 12:06:23;;;;;;;7.80;3.60;;;10.00;99.90;;;;;;4990981;28;20478;-74
2023/12/21 12:08:49;;;;;;;5.30;3.30;;;10.00;99.90;;;;;;4991504;28;20856;-74
2023/12/21 12:11:15;;;;;;;3.20;2.90;;;10.10;99.90;;;;;;4991605;28;20477;-72
2023/12/21 12:13:41;;;;;;;3.20;2.83;;;10.10;99.90;;;;;;4989318;28;20427;-76
2023/12/21 12:16:08;;;;;;;5.73;2.83;;;10.10;99.90;;;;;;4991131;28;20609;-74
2023/12/21 12:18:34;;;;;;;3.33;2.60;;;10.10;99.90;;;;;;4983769;28;20484;-75
2023/12/21 12:21:00;;;;;;;7.07;2.80;;;10.10;99.90;;;;;;4987677;28;20482;-71
2023/12/21 12:23:27;;;;;;;4.83;2.60;;;10.10;99.90;;;;;;4989169;28;20273;-73
2023/12/21 12:25:53;;;;;;;3.53;2.40;;;10.10;99.90;;;;;;4990165;28;20595;-74
2023/12/21 12:28:21;;;;;;;3.87;2.23;;;10.20;99.90;;;;;;4989707;28;20427;-73
2023/12/21 12:30:48;;;;;;;5.13;2.70;;;10.20;99.90;;;;;;4993166;28;20451;-72
2023/12/21 12:33:14;;;;;;;3.87;1.90;;;10.20;99.90;;;;;;4991373;28;20441;-73
2023/12/21 12:35:42;;;;;;;4.13;1.63;;;10.20;99.90;;;;;;4990026;28;20426;-73
2023/12/21 12:38:08;;;;;;;4.83;1.33;;;10.20;99.90;;;;;;4990483;28;20441;-73
2023/12/21 12:40:34;;;;;;;2.50;1.60;;;10.20;99.90;;;;;;4990174;28;20431;-73
2023/12/21 12:43:01;;;;;;;4.20;1.20;;;10.20;99.90;;;;;;4990506;28;20191;-72
2023/12/21 12:45:26;;;;;;;2.80;1.67;;;10.20;99.90;;;;;;5004945;28;20875;-74
2023/12/21 12:47:52;;;;;;;2.53;1.60;;;10.20;99.90;;;;;;5090577;27;20548;-74
2023/12/21 12:50:20;;;;;;;1.30;1.20;;;10.20;99.90;;;;;;4991134;28;20337;-69